Time;durP1;ratioP1;P1;durP2;ratioP2;P2;SDS_P1;SDS_P2;PMS_P1;PMS_P2;Temp;Humidity;BMP_temperature;BMP_pressure;BME280_temperature;BME280_humidity;BME280_pressure;Samples;Min_cycle;Max_cycle;Signal;HPM_P1;HPM_P2
2022/04/08 00:01:15;;;;;;;9.50;3.88;;;7.10;81.60;;;;;;5021202;28;20155;-75
2022/04/08 00:03:41;;;;;;;7.90;3.58;;;7.10;81.70;;;;;;5021082;28;20041;-74
2022/04/08 00:06:08;;;;;;;9.57;3.33;;;7.10;81.80;;;;;;5017427;28;20034;-78
2022/04/08 00:08:34;;;;;;;10.50;3.72;;;7.00;82.10;;;;;;5017629;28;20025;-79
2022/04/08 00:11:00;;;;;;;6.15;3.00;;;7.00;82.10;;;;;;5021108;28;20072;-74
2022/04/08 00:13:26;;;;;;;8.75;3.45;;;7.00;82.00;;;;;;5022619;28;20048;-76
2022/04/08 00:15:51;;;;;;;8.70;3.22;;;7.00;82.20;;;;;;4999557;28;20049;-75
2022/04/08 00:18:19;;;;;;;8.82;3.00;;;6.90;82.10;;;;;;5020717;28;20155;-76
2022/04/08 00:20:44;;;;;;;8.65;3.00;;;6.90;82.10;;;;;;5020298;28;20484;-75
2022/04/08 00:23:10;;;;;;;7.80;3.83;;;6.80;82.30;;;;;;5020007;28;20038;-74
2022/04/08 00:25:36;;;;;;;12.32;3.85;;;6.80;82.40;;;;;;5019039;28;20030;-75
2022/04/08 00:28:02;;;;;;;6.72;3.17;;;6.80;82.40;;;;;;5018812;28;20034;-74
2022/04/08 00:30:27;;;;;;;8.32;3.47;;;6.80;82.60;;;;;;5019389;28;20505;-76
2022/04/08 00:32:57;;;;;;;5.97;3.25;;;6.70;82.70;;;;;;5020743;28;20091;-73
2022/04/08 00:35:22;;;;;;;7.90;3.28;;;6.70;82.90;;;;;;5018331;28;20587;-76
2022/04/08 00:37:50;;;;;;;8.20;3.67;;;6.70;83.00;;;;;;5019910;28;20025;-76
2022/04/08 00:40:16;;;;;;;8.52;3.45;;;6.70;83.00;;;;;;5015806;28;20029;-73
2022/04/08 00:42:42;;;;;;;11.38;3.20;;;6.60;83.00;;;;;;5001506;28;20416;-76
2022/04/08 00:45:09;;;;;;;9.68;3.63;;;6.60;83.20;;;;;;5018006;28;20121;-76
2022/04/08 00:47:36;;;;;;;12.80;3.65;;;6.60;83.20;;;;;;5019614;28;20041;-74
2022/04/08 00:50:04;;;;;;;11.20;3.83;;;6.60;83.30;;;;;;5019801;28;20048;-73
2022/04/08 00:52:35;;;;;;;8.75;3.38;;;6.60;83.30;;;;;;5018920;28;20387;-78
2022/04/08 00:55:05;;;;;;;11.00;3.47;;;6.60;83.30;;;;;;5016030;28;20052;-77
2022/04/08 00:57:31;;;;;;;7.95;3.20;;;6.50;83.50;;;;;;5020087;28;20029;-73
2022/04/08 01:00:03;;;;;;;11.60;3.65;;;6.50;83.60;;;;;;5019842;28;20592;-73
2022/04/08 01:02:29;;;;;;;11.57;3.60;;;6.50;83.60;;;;;;5015662;28;20073;-72
2022/04/08 01:04:55;;;;;;;9.50;4.95;;;6.50;83.80;;;;;;5019009;28;20049;-74
2022/04/08 01:07:21;;;;;;;13.98;5.72;;;6.60;83.70;;;;;;5019440;28;20041;-75
2022/04/08 01:09:47;;;;;;;16.92;12.10;;;6.60;83.70;;;;;;5019170;28;20026;-75
2022/04/08 01:12:13;;;;;;;19.58;14.13;;;6.60;83.60;;;;;;5001963;28;20116;-74
2022/04/08 01:14:41;;;;;;;23.42;15.05;;;6.60;83.80;;;;;;5025924;28;20508;-76
2022/04/08 01:17:07;;;;;;;17.48;12.50;;;6.70;83.90;;;;;;5019910;28;20042;-74
2022/04/08 01:19:32;;;;;;;13.68;9.13;;;6.70;83.60;;;;;;5019776;28;20037;-74
2022/04/08 01:21:58;;;;;;;12.15;7.85;;;6.80;83.40;;;;;;5020110;28;20049;-76
2022/04/08 01:24:26;;;;;;;11.35;7.15;;;6.80;83.20;;;;;;5018072;28;20108;-75
2022/04/08 01:26:52;;;;;;;12.52;6.25;;;6.90;83.10;;;;;;5018234;28;20048;-72
2022/04/08 01:29:18;;;;;;;10.13;4.88;;;6.80;82.90;;;;;;5000718;28;20099;-73
2022/04/08 01:31:45;;;;;;;12.10;4.60;;;6.90;82.60;;;;;;5015456;28;20037;-73
2022/04/08 01:34:11;;;;;;;12.52;5.68;;;6.90;82.40;;;;;;4997447;28;20534;-76
2022/04/08 01:36:38;;;;;;;13.85;5.18;;;6.90;82.00;;;;;;5018358;28;20033;-73
2022/04/08 01:39:04;;;;;;;10.35;5.45;;;6.90;82.00;;;;;;5018385;28;20049;-76
2022/04/08 01:41:31;;;;;;;10.77;5.68;;;6.90;81.80;;;;;;5018115;28;20041;-78
2022/04/08 01:43:57;;;;;;;13.13;5.80;;;6.90;81.80;;;;;;5015740;28;20383;-76
2022/04/08 01:46:23;;;;;;;9.88;5.55;;;6.80;81.80;;;;;;4999934;28;20492;-75
2022/04/08 01:48:53;;;;;;;13.45;6.30;;;6.70;82.00;;;;;;5018993;28;20034;-76
2022/04/08 01:51:19;;;;;;;9.77;6.10;;;6.60;82.00;;;;;;5018360;28;20037;-72
2022/04/08 01:53:45;;;;;;;12.25;6.35;;;6.60;82.00;;;;;;5013799;28;20041;-76
2022/04/08 01:56:11;;;;;;;16.25;7.13;;;6.60;82.10;;;;;;5018085;28;20091;-76
2022/04/08 01:58:37;;;;;;;15.00;6.50;;;6.50;82.20;;;;;;5017702;28;20033;-75
2022/04/08 02:01:03;;;;;;;12.00;6.45;;;6.50;82.20;;;;;;5018410;28;20041;-74
2022/04/08 02:03:28;;;;;;;10.20;5.68;;;6.40;82.20;;;;;;5019230;28;20046;-75
2022/04/08 02:05:54;;;;;;;10.30;5.95;;;6.40;81.90;;;;;;4999153;28;20051;-74
2022/04/08 02:08:20;;;;;;;12.50;6.25;;;6.30;82.10;;;;;;5017654;28;20041;-75
2022/04/08 02:10:46;;;;;;;11.23;6.85;;;6.30;82.30;;;;;;5017901;28;20079;-75
2022/04/08 02:13:11;;;;;;;9.98;5.88;;;6.30;82.30;;;;;;5017516;28;20124;-75
2022/04/08 02:15:37;;;;;;;11.07;5.85;;;6.30;82.00;;;;;;5015193;28;20037;-79
2022/04/08 02:18:03;;;;;;;13.13;6.28;;;6.20;82.20;;;;;;5016623;28;20072;-74
2022/04/08 02:20:31;;;;;;;10.32;5.72;;;6.20;82.10;;;;;;4999991;28;20509;-77
2022/04/08 02:22:58;;;;;;;14.63;6.70;;;6.10;82.20;;;;;;5017951;28;20057;-74
2022/04/08 02:25:24;;;;;;;10.05;6.10;;;6.10;82.20;;;;;;5017594;28;20416;-76
2022/04/08 02:27:50;;;;;;;11.88;6.55;;;6.10;82.20;;;;;;5018510;28;20045;-77
2022/04/08 02:30:16;;;;;;;12.60;5.95;;;6.10;82.20;;;;;;5008239;28;20047;-75
2022/04/08 02:32:41;;;;;;;10.73;5.88;;;6.10;82.00;;;;;;4999976;28;20213;-80
2022/04/08 02:35:07;;;;;;;11.85;5.95;;;6.10;82.10;;;;;;5011896;28;20041;-77
2022/04/08 02:37:33;;;;;;;11.40;5.93;;;6.00;82.20;;;;;;5017997;28;20044;-76
2022/04/08 02:39:59;;;;;;;13.82;5.88;;;6.00;81.80;;;;;;5016056;28;20048;-75
2022/04/08 02:42:24;;;;;;;8.23;5.60;;;6.00;81.90;;;;;;5018905;28;20037;-76
2022/04/08 02:44:50;;;;;;;13.15;5.95;;;6.00;81.90;;;;;;5015619;28;20042;-76
2022/04/08 02:47:16;;;;;;;12.27;6.03;;;6.00;81.80;;;;;;5016466;28;20530;-75
2022/04/08 02:49:41;;;;;;;9.07;5.07;;;6.10;81.80;;;;;;5018064;28;20029;-74
2022/04/08 02:52:07;;;;;;;10.82;4.80;;;6.00;81.80;;;;;;5017616;28;20120;-73
2022/04/08 02:54:33;;;;;;;11.13;4.82;;;6.00;81.70;;;;;;5018133;28;20391;-76
2022/04/08 02:56:58;;;;;;;12.80;4.75;;;6.10;81.70;;;;;;5018125;28;20030;-78
2022/04/08 02:59:24;;;;;;;12.77;4.82;;;6.00;81.70;;;;;;5017760;28;20033;-74
2022/04/08 03:01:49;;;;;;;9.32;4.72;;;5.90;81.70;;;;;;5018166;28;20063;-75
2022/04/08 03:04:15;;;;;;;12.07;4.85;;;6.00;81.70;;;;;;5015652;28;20038;-75
2022/04/08 03:06:41;;;;;;;10.65;4.70;;;5.90;81.70;;;;;;5017737;28;20128;-74
2022/04/08 03:09:06;;;;;;;10.60;5.00;;;5.90;81.60;;;;;;5016829;28;20056;-75
2022/04/08 03:11:33;;;;;;;8.88;4.43;;;5.90;81.70;;;;;;5017434;28;20038;-76
2022/04/08 03:14:01;;;;;;;10.18;4.97;;;6.00;81.60;;;;;;5014533;28;20045;-75
2022/04/08 03:16:27;;;;;;;12.40;4.45;;;6.00;81.60;;;;;;5015297;28;20443;-75
2022/04/08 03:18:53;;;;;;;12.40;5.57;;;5.90;81.70;;;;;;4998872;28;20064;-76
2022/04/08 03:21:18;;;;;;;10.63;4.40;;;5.80;82.00;;;;;;5011093;28;20040;-76
2022/04/08 03:23:44;;;;;;;11.32;4.95;;;5.80;81.90;;;;;;5014154;28;20490;-75
2022/04/08 03:26:10;;;;;;;10.00;4.30;;;5.80;82.00;;;;;;5015992;28;20041;-75
2022/04/08 03:28:36;;;;;;;11.07;4.20;;;5.80;82.00;;;;;;5020404;28;20083;-74
2022/04/08 03:31:02;;;;;;;11.02;4.65;;;5.70;81.90;;;;;;5020932;28;20042;-76
2022/04/08 03:33:28;;;;;;;8.63;4.55;;;5.70;82.10;;;;;;5020839;28;20040;-74
2022/04/08 03:35:53;;;;;;;11.90;4.38;;;5.70;81.90;;;;;;5019995;28;20044;-77
2022/04/08 03:38:19;;;;;;;10.68;4.90;;;5.70;81.90;;;;;;5019919;28;20049;-74
2022/04/08 03:40:45;;;;;;;12.10;4.60;;;5.60;82.00;;;;;;5000325;28;20454;-76
2022/04/08 03:43:10;;;;;;;8.70;4.10;;;5.60;82.00;;;;;;5020344;28;20096;-77
2022/04/08 03:45:36;;;;;;;11.43;4.13;;;5.70;82.00;;;;;;5020485;28;20120;-75
2022/04/08 03:48:02;;;;;;;13.27;5.15;;;5.60;81.80;;;;;;5020649;28;20029;-74
2022/04/08 03:50:28;;;;;;;9.88;4.45;;;5.60;81.80;;;;;;5021227;28;20037;-75
2022/04/08 03:52:53;;;;;;;10.18;5.00;;;5.60;81.60;;;;;;5018935;28;20111;-74
2022/04/08 03:55:19;;;;;;;9.30;3.95;;;5.60;81.60;;;;;;5020067;28;20041;-75
2022/04/08 03:57:45;;;;;;;12.30;4.50;;;5.60;81.50;;;;;;5018453;28;20036;-79
2022/04/08 04:00:11;;;;;;;9.63;5.07;;;5.60;81.40;;;;;;5020293;28;20045;-75
2022/04/08 04:02:36;;;;;;;11.00;4.93;;;5.60;81.50;;;;;;4999097;28;20037;-74
2022/04/08 04:05:03;;;;;;;10.27;4.53;;;5.60;81.60;;;;;;5016954;28;20731;-76
2022/04/08 04:07:29;;;;;;;12.63;4.88;;;5.60;81.70;;;;;;5016801;28;20037;-76
2022/04/08 04:09:55;;;;;;;13.55;4.55;;;5.50;81.80;;;;;;5020293;28;20040;-75
2022/04/08 04:12:21;;;;;;;11.43;4.47;;;5.50;81.90;;;;;;5000768;28;20539;-76
2022/04/08 04:14:46;;;;;;;10.93;4.22;;;5.50;82.00;;;;;;5019012;28;20384;-75
2022/04/08 04:17:12;;;;;;;10.60;4.75;;;5.50;82.00;;;;;;5021644;28;20052;-74
2022/04/08 04:19:37;;;;;;;9.27;3.88;;;5.40;82.00;;;;;;5020270;28;20030;-73
2022/04/08 04:22:04;;;;;;;10.18;3.70;;;5.40;82.20;;;;;;5001532;28;20161;-75
2022/04/08 04:24:30;;;;;;;9.57;4.43;;;5.40;82.20;;;;;;5018760;28;20030;-74
2022/04/08 04:26:55;;;;;;;11.77;3.90;;;5.50;82.20;;;;;;5020577;28;20033;-74
2022/04/08 04:29:21;;;;;;;10.98;4.57;;;5.40;82.00;;;;;;5000598;28;20095;-74
2022/04/08 04:31:47;;;;;;;11.02;3.88;;;5.40;82.00;;;;;;5002675;28;20488;-73
2022/04/08 04:34:13;;;;;;;11.80;4.60;;;5.40;82.10;;;;;;5020377;28;20038;-75
2022/04/08 04:36:39;;;;;;;7.10;4.00;;;5.40;82.10;;;;;;5019940;28;20037;-78
2022/04/08 04:39:04;;;;;;;13.60;4.45;;;5.40;82.20;;;;;;5019962;28;20037;-75
2022/04/08 04:41:32;;;;;;;9.23;4.32;;;5.40;82.20;;;;;;5018539;28;20048;-79
2022/04/08 04:43:57;;;;;;;11.45;4.00;;;5.40;82.10;;;;;;5021157;28;20029;-76
2022/04/08 04:46:23;;;;;;;10.27;4.32;;;5.40;82.10;;;;;;5020037;28;20592;-74
2022/04/08 04:48:49;;;;;;;8.88;3.72;;;5.40;82.10;;;;;;5024892;28;20035;-74
2022/04/08 04:51:16;;;;;;;11.50;4.10;;;5.40;82.10;;;;;;5023822;28;20107;-75
2022/04/08 04:53:42;;;;;;;8.88;3.85;;;5.40;82.10;;;;;;5000693;28;20493;-75
2022/04/08 04:56:08;;;;;;;9.95;4.20;;;5.40;82.00;;;;;;5017700;28;20042;-74
2022/04/08 04:58:33;;;;;;;10.65;4.35;;;5.40;82.00;;;;;;5018706;28;20030;-76
2022/04/08 05:00:59;;;;;;;11.65;4.15;;;5.40;82.00;;;;;;5001039;28;20038;-74
2022/04/08 05:03:25;;;;;;;8.50;4.25;;;5.40;82.10;;;;;;5019749;28;20041;-75
2022/04/08 05:05:53;;;;;;;8.63;3.45;;;5.40;82.10;;;;;;5019170;28;20734;-73
2022/04/08 05:08:20;;;;;;;8.65;3.63;;;5.30;82.20;;;;;;5020517;28;20061;-75
2022/04/08 05:10:47;;;;;;;7.60;3.38;;;5.30;82.20;;;;;;5017059;28;20081;-75
2022/04/08 05:13:12;;;;;;;7.97;3.72;;;5.40;82.20;;;;;;4997096;28;20037;-75
2022/04/08 05:15:42;;;;;;;6.63;3.75;;;5.40;82.30;;;;;;5007932;28;20088;-75
2022/04/08 05:18:08;;;;;;;10.23;3.83;;;5.40;82.20;;;;;;5007140;28;21574;-74
2022/04/08 05:20:34;;;;;;;8.88;4.00;;;5.40;82.30;;;;;;5005412;28;20034;-76
2022/04/08 05:23:00;;;;;;;11.90;4.80;;;5.40;82.20;;;;;;5010807;28;20503;-74
2022/04/08 05:25:25;;;;;;;10.35;5.15;;;5.40;82.30;;;;;;4996518;28;20582;-76
2022/04/08 05:27:51;;;;;;;11.45;5.20;;;5.50;82.20;;;;;;5008315;28;20029;-76
2022/04/08 05:30:17;;;;;;;11.23;5.40;;;5.50;82.20;;;;;;5009860;28;20235;-73
2022/04/08 05:32:44;;;;;;;11.57;5.38;;;5.60;82.20;;;;;;5005779;28;20101;-77
2022/04/08 05:35:10;;;;;;;9.07;4.88;;;5.60;82.10;;;;;;5022843;28;20047;-78
2022/04/08 05:37:42;;;;;;;8.32;5.07;;;5.60;82.20;;;;;;5028646;28;20112;-76
2022/04/08 05:40:09;;;;;;;9.82;4.53;;;5.60;82.20;;;;;;5014039;28;20108;-77
2022/04/08 05:42:35;;;;;;;11.35;4.90;;;5.70;82.20;;;;;;5001209;28;20505;-77
2022/04/08 05:45:00;;;;;;;10.65;4.90;;;5.70;82.20;;;;;;5003862;28;20052;-77
2022/04/08 05:47:31;;;;;;;12.15;5.20;;;5.70;82.20;;;;;;5001693;28;20030;-77
2022/04/08 05:50:00;;;;;;;11.07;4.85;;;5.70;82.10;;;;;;5008146;28;20038;-75
2022/04/08 05:52:26;;;;;;;11.38;5.68;;;5.80;82.00;;;;;;5006915;28;20091;-77
2022/04/08 05:54:52;;;;;;;12.55;5.55;;;5.80;81.90;;;;;;5005434;28;20132;-75
2022/04/08 05:57:19;;;;;;;9.60;5.38;;;5.80;81.80;;;;;;5006356;28;20441;-78
2022/04/08 05:59:45;;;;;;;12.80;5.40;;;5.90;81.70;;;;;;5007322;28;20029;-74
2022/04/08 06:02:11;;;;;;;11.13;5.43;;;5.80;81.60;;;;;;5004110;28;20054;-77
2022/04/08 06:04:37;;;;;;;11.57;5.30;;;5.90;81.50;;;;;;5002487;28;20034;-74
2022/04/08 06:07:02;;;;;;;9.13;4.82;;;5.80;81.60;;;;;;5003266;28;20485;-72
2022/04/08 06:09:28;;;;;;;10.63;5.40;;;5.90;81.50;;;;;;5006169;28;20025;-74
2022/04/08 06:11:54;;;;;;;14.55;5.40;;;5.90;81.50;;;;;;5006431;28;20041;-76
2022/04/08 06:14:19;;;;;;;11.80;5.22;;;5.90;81.40;;;;;;5010571;28;20049;-76
2022/04/08 06:16:45;;;;;;;11.73;5.45;;;6.00;81.30;;;;;;5011109;28;20093;-74
2022/04/08 06:19:11;;;;;;;13.52;5.85;;;6.10;81.20;;;;;;5000857;28;20030;-75
2022/04/08 06:21:36;;;;;;;12.00;5.93;;;6.10;81.00;;;;;;5004410;28;20030;-73
2022/04/08 06:24:02;;;;;;;10.93;5.00;;;6.10;81.00;;;;;;5003448;28;20040;-74
2022/04/08 06:26:28;;;;;;;13.13;5.25;;;6.10;80.80;;;;;;5016652;28;20034;-78
2022/04/08 06:28:53;;;;;;;12.75;5.55;;;6.20;80.80;;;;;;4999733;28;20091;-76
2022/04/08 06:31:19;;;;;;;9.55;4.30;;;6.20;80.80;;;;;;5017186;28;20076;-75
2022/04/08 06:33:44;;;;;;;11.90;5.00;;;6.30;80.70;;;;;;5003766;28;20519;-76
2022/04/08 06:36:10;;;;;;;11.25;5.25;;;6.30;80.40;;;;;;5004258;28;20199;-74
2022/04/08 06:38:36;;;;;;;11.25;4.97;;;6.40;80.50;;;;;;5006735;28;20033;-74
2022/04/08 06:41:01;;;;;;;10.98;4.80;;;6.40;80.50;;;;;;5002650;28;20532;-74
2022/04/08 06:43:27;;;;;;;11.68;4.72;;;6.50;80.40;;;;;;5002317;28;20113;-75
2022/04/08 06:45:53;;;;;;;9.70;4.75;;;6.50;80.30;;;;;;5006347;28;20388;-74
2022/04/08 06:48:18;;;;;;;10.63;4.95;;;6.60;80.30;;;;;;5003128;28;20128;-75
2022/04/08 06:50:44;;;;;;;13.68;5.80;;;6.60;80.10;;;;;;5003214;28;20435;-76
2022/04/08 06:53:10;;;;;;;13.18;5.78;;;6.60;79.90;;;;;;4985646;28;20048;-75
2022/04/08 06:55:36;;;;;;;14.30;5.68;;;6.60;79.60;;;;;;5005079;28;20041;-77
2022/04/08 06:58:03;;;;;;;14.85;6.00;;;6.70;79.50;;;;;;5005951;28;20750;-75
2022/04/08 07:00:34;;;;;;;11.95;5.30;;;6.80;79.20;;;;;;5002230;28;20037;-75
2022/04/08 07:03:00;;;;;;;12.13;5.35;;;6.80;79.50;;;;;;5006003;28;20156;-75
2022/04/08 07:05:25;;;;;;;12.82;5.70;;;6.80;79.20;;;;;;5008552;28;20122;-77
2022/04/08 07:07:51;;;;;;;11.23;5.57;;;6.90;79.00;;;;;;5006786;28;20209;-74
2022/04/08 07:10:17;;;;;;;9.68;4.93;;;6.90;78.70;;;;;;5006157;28;20309;-78
2022/04/08 07:12:42;;;;;;;13.25;5.13;;;7.00;78.50;;;;;;5005389;28;20483;-77
2022/04/08 07:15:09;;;;;;;12.43;5.25;;;7.00;78.30;;;;;;5006260;28;20088;-76
2022/04/08 07:17:36;;;;;;;11.75;5.72;;;7.10;78.10;;;;;;5005644;28;20099;-76
2022/04/08 07:20:02;;;;;;;13.43;5.80;;;7.10;77.90;;;;;;5009550;28;20072;-74
2022/04/08 07:22:28;;;;;;;11.45;5.53;;;7.20;77.70;;;;;;5007992;28;20108;-78
2022/04/08 07:24:54;;;;;;;11.30;5.82;;;7.20;77.40;;;;;;5005594;28;20441;-78
2022/04/08 07:27:20;;;;;;;11.75;5.95;;;7.20;77.40;;;;;;5004529;28;20049;-75
2022/04/08 07:29:47;;;;;;;12.88;6.03;;;7.20;76.90;;;;;;4992365;28;20577;-78
2022/04/08 07:32:20;;;;;;;9.98;5.57;;;7.20;76.90;;;;;;5001177;28;20042;-75
2022/04/08 07:34:50;;;;;;;11.77;5.20;;;7.30;76.90;;;;;;4989864;28;20274;-80
2022/04/08 07:37:28;;;;;;;13.95;6.03;;;7.40;76.60;;;;;;4984622;28;20037;-76
2022/04/08 07:39:54;;;;;;;12.30;5.57;;;7.40;75.80;;;;;;5005985;28;20128;-77
2022/04/08 07:42:20;;;;;;;12.88;5.22;;;7.40;75.80;;;;;;5003179;28;20046;-73
2022/04/08 07:44:46;;;;;;;11.18;5.53;;;7.50;75.30;;;;;;5001971;28;20278;-74
2022/04/08 07:47:11;;;;;;;11.27;5.38;;;7.50;75.30;;;;;;5005634;28;20042;-75
2022/04/08 07:49:37;;;;;;;11.60;5.40;;;7.60;75.10;;;;;;5006793;28;20040;-76
2022/04/08 07:52:03;;;;;;;12.40;4.82;;;7.60;75.10;;;;;;5006570;28;20524;-75
2022/04/08 07:54:29;;;;;;;12.27;5.10;;;7.60;75.00;;;;;;5002206;28;20034;-75
2022/04/08 07:56:54;;;;;;;11.18;5.53;;;7.70;74.70;;;;;;5000285;28;20069;-76
2022/04/08 07:59:20;;;;;;;9.27;4.55;;;7.80;74.60;;;;;;5005129;28;20038;-76
2022/04/08 08:01:47;;;;;;;13.25;4.72;;;7.80;74.30;;;;;;5010326;28;20060;-76
2022/04/08 08:04:13;;;;;;;10.85;4.32;;;7.90;74.10;;;;;;4995251;28;20087;-75
2022/04/08 08:06:38;;;;;;;12.25;4.68;;;8.00;73.90;;;;;;5002213;28;20568;-76
2022/04/08 08:09:04;;;;;;;12.73;4.40;;;8.10;73.40;;;;;;4984253;28;20041;-77
2022/04/08 08:11:30;;;;;;;10.80;4.10;;;8.10;73.10;;;;;;5010263;28;20032;-76
2022/04/08 08:13:57;;;;;;;8.73;3.97;;;8.10;72.40;;;;;;5014890;28;20048;-75
2022/04/08 08:16:23;;;;;;;11.60;3.80;;;8.20;72.40;;;;;;5012953;28;20036;-76
2022/04/08 08:18:49;;;;;;;9.25;3.97;;;8.20;72.20;;;;;;4989220;28;20622;-75
2022/04/08 08:21:16;;;;;;;10.80;4.10;;;8.20;72.10;;;;;;5015929;28;20037;-73
2022/04/08 08:23:41;;;;;;;9.38;4.60;;;8.30;71.80;;;;;;5013221;28;20064;-74
2022/04/08 08:26:07;;;;;;;10.82;4.25;;;8.30;71.80;;;;;;5028187;28;20021;-74
2022/04/08 08:28:33;;;;;;;13.07;5.28;;;8.40;71.80;;;;;;5033524;28;20033;-75
2022/04/08 08:30:58;;;;;;;10.00;4.47;;;8.40;70.70;;;;;;5035104;28;20069;-75
2022/04/08 08:33:24;;;;;;;10.30;4.70;;;8.40;70.50;;;;;;5016309;28;20037;-76
2022/04/08 08:35:49;;;;;;;12.52;4.05;;;8.40;70.40;;;;;;5014687;28;20247;-75
2022/04/08 08:38:15;;;;;;;8.05;3.60;;;8.40;70.80;;;;;;5016025;28;20041;-74
2022/04/08 08:40:44;;;;;;;11.30;4.68;;;8.40;70.30;;;;;;5017924;28;20064;-75
2022/04/08 08:43:17;;;;;;;9.60;3.50;;;8.40;70.10;;;;;;5002445;28;20621;-73
2022/04/08 08:45:50;;;;;;;8.55;3.28;;;8.50;69.90;;;;;;5011676;28;20080;-75
2022/04/08 08:48:16;;;;;;;11.65;3.70;;;8.50;69.40;;;;;;5010479;28;20033;-74
2022/04/08 08:50:47;;;;;;;8.82;3.60;;;8.50;69.10;;;;;;5011588;28;20123;-76
2022/04/08 08:53:19;;;;;;;10.70;3.92;;;8.50;69.60;;;;;;4985600;28;20034;-74
2022/04/08 08:55:48;;;;;;;8.50;3.42;;;8.50;69.40;;;;;;4999643;28;20029;-75
2022/04/08 08:58:14;;;;;;;12.23;4.00;;;8.60;69.10;;;;;;4997269;28;20045;-74
2022/04/08 09:00:40;;;;;;;8.38;3.67;;;8.60;68.50;;;;;;4996930;28;20387;-75
2022/04/08 09:03:06;;;;;;;11.70;3.53;;;8.60;68.60;;;;;;4993448;28;20038;-75
2022/04/08 09:05:42;;;;;;;8.68;3.42;;;8.70;68.50;;;;;;4989826;28;20692;-75
2022/04/08 09:08:08;;;;;;;10.20;3.60;;;8.70;68.30;;;;;;4991397;28;20042;-74
2022/04/08 09:10:43;;;;;;;11.07;2.97;;;8.60;67.30;;;;;;5011468;28;20277;-75
2022/04/08 09:13:09;;;;;;;11.00;4.32;;;8.60;67.10;;;;;;4992740;28;20046;-76
2022/04/08 09:15:39;;;;;;;14.00;3.40;;;8.70;66.50;;;;;;5011632;28;20033;-75
2022/04/08 09:18:12;;;;;;;9.35;3.35;;;8.70;66.40;;;;;;5005979;28;20136;-75
2022/04/08 09:20:43;;;;;;;8.60;3.65;;;8.80;66.50;;;;;;4994708;28;20084;-75
2022/04/08 09:23:10;;;;;;;10.32;3.85;;;8.90;66.30;;;;;;4987478;28;20053;-74
2022/04/08 09:25:37;;;;;;;11.65;4.25;;;9.00;66.80;;;;;;5001593;28;20252;-73
2022/04/08 09:28:07;;;;;;;9.93;3.38;;;9.10;66.40;;;;;;5005782;28;20099;-73
2022/04/08 09:30:33;;;;;;;12.10;4.00;;;9.10;66.60;;;;;;5009599;28;20044;-75
2022/04/08 09:33:09;;;;;;;11.35;3.42;;;9.20;66.20;;;;;;4994070;28;20042;-75
2022/04/08 09:35:39;;;;;;;9.75;3.05;;;9.10;64.10;;;;;;5004873;28;20042;-74
2022/04/08 09:38:05;;;;;;;9.68;3.25;;;8.90;63.90;;;;;;5018677;28;20555;-73
2022/04/08 09:40:36;;;;;;;8.30;3.10;;;8.90;64.30;;;;;;4990282;28;20117;-73
2022/04/08 09:43:02;;;;;;;9.07;3.28;;;8.90;64.00;;;;;;5010544;28;20049;-75
2022/04/08 09:45:30;;;;;;;8.30;3.10;;;8.90;65.30;;;;;;5014968;28;20038;-75
2022/04/08 09:47:57;;;;;;;6.55;2.83;;;8.90;64.80;;;;;;5018065;28;20037;-74
2022/04/08 09:50:24;;;;;;;8.63;2.75;;;8.90;64.00;;;;;;5017837;28;20037;-74
2022/04/08 09:52:49;;;;;;;11.68;3.35;;;8.80;63.50;;;;;;4998409;28;20080;-74
2022/04/08 09:55:16;;;;;;;7.68;2.70;;;8.90;64.40;;;;;;5011764;28;20038;-74
2022/04/08 09:57:46;;;;;;;7.60;2.25;;;9.00;62.60;;;;;;5009243;28;20034;-75
2022/04/08 10:00:12;;;;;;;6.43;2.30;;;9.00;62.30;;;;;;5015201;28;20538;-75
2022/04/08 10:02:44;;;;;;;6.72;2.47;;;9.10;62.30;;;;;;5012337;28;20072;-74
2022/04/08 10:05:11;;;;;;;9.50;2.83;;;9.10;62.00;;;;;;5010099;28;20063;-74
2022/04/08 10:07:39;;;;;;;7.57;2.25;;;9.10;61.70;;;;;;5013574;28;20033;-74
2022/04/08 10:10:09;;;;;;;7.90;2.60;;;9.10;60.10;;;;;;5010808;28;20116;-75
2022/04/08 10:13:14;;;;;;;6.30;2.47;;;9.10;60.10;;;;;;5008671;28;20041;-75
2022/04/08 10:15:45;;;;;;;6.32;2.15;;;9.20;60.30;;;;;;5008012;28;20022;-75
2022/04/08 10:18:10;;;;;;;9.35;2.97;;;9.20;59.10;;;;;;5003523;28;20029;-74
2022/04/08 10:20:38;;;;;;;10.80;2.60;;;9.20;60.10;;;;;;5012215;28;20025;-74
2022/04/08 10:23:15;;;;;;;7.38;2.30;;;9.30;58.40;;;;;;4990121;28;20473;-74
2022/04/08 10:25:50;;;;;;;8.52;2.70;;;9.40;58.30;;;;;;5011484;28;20045;-75
2022/04/08 10:28:16;;;;;;;11.68;2.58;;;9.30;57.80;;;;;;5004083;28;20564;-74
2022/04/08 10:30:49;;;;;;;6.60;2.80;;;9.40;57.30;;;;;;5007502;28;20048;-75
2022/04/08 10:33:29;;;;;;;8.98;2.38;;;9.50;57.90;;;;;;5007393;28;20046;-75
2022/04/08 10:36:01;;;;;;;6.22;2.25;;;9.60;57.20;;;;;;5015577;28;20133;-75
2022/04/08 10:38:38;;;;;;;10.25;2.58;;;9.60;54.40;;;;;;5004138;28;20107;-75
2022/04/08 10:41:08;;;;;;;6.60;2.10;;;9.60;54.90;;;;;;5011804;28;20057;-74
2022/04/08 10:43:48;;;;;;;6.80;2.60;;;9.70;53.90;;;;;;5010519;28;20698;-74
2022/04/08 10:46:29;;;;;;;7.97;2.42;;;9.80;54.20;;;;;;5007466;28;20048;-75
2022/04/08 10:48:57;;;;;;;7.13;2.17;;;9.80;54.10;;;;;;5010991;28;20378;-73
2022/04/08 10:51:23;;;;;;;9.30;2.65;;;9.80;54.90;;;;;;5010839;28;20046;-74
2022/04/08 10:53:49;;;;;;;6.90;2.42;;;9.90;54.40;;;;;;5010702;28;20049;-74
2022/04/08 10:56:15;;;;;;;11.00;2.40;;;10.10;53.20;;;;;;5010433;28;20041;-74
2022/04/08 10:58:49;;;;;;;6.65;2.08;;;10.00;52.70;;;;;;5008685;28;20439;-73
2022/04/08 11:01:25;;;;;;;6.75;2.25;;;9.90;51.60;;;;;;5005288;28;20034;-74
2022/04/08 11:04:00;;;;;;;7.28;2.28;;;10.10;52.20;;;;;;5007154;28;20050;-74
2022/04/08 11:06:27;;;;;;;9.25;2.97;;;10.10;53.00;;;;;;5007088;28;20149;-74
2022/04/08 11:08:52;;;;;;;7.75;2.80;;;10.20;52.20;;;;;;4988033;28;20120;-74
2022/04/08 11:11:28;;;;;;;9.95;2.80;;;10.30;52.20;;;;;;5011144;28;20103;-74
2022/04/08 11:13:58;;;;;;;11.52;3.78;;;10.40;51.30;;;;;;5007957;28;20046;-74
2022/04/08 11:16:26;;;;;;;8.27;4.00;;;10.40;52.40;;;;;;5011634;28;20038;-74
2022/04/08 11:18:52;;;;;;;6.07;2.10;;;10.50;52.70;;;;;;5012090;28;20038;-74
2022/04/08 11:21:19;;;;;;;8.48;2.58;;;10.40;51.90;;;;;;4996336;28;20044;-74
2022/04/08 11:23:59;;;;;;;9.60;2.67;;;10.50;52.80;;;;;;5008477;28;20176;-72
2022/04/08 11:26:25;;;;;;;10.80;2.45;;;10.60;51.60;;;;;;5005967;28;20038;-73
2022/04/08 11:28:51;;;;;;;6.82;2.95;;;10.70;50.80;;;;;;4994896;28;20579;-74
2022/04/08 11:31:18;;;;;;;7.75;2.15;;;10.80;50.50;;;;;;5010533;28;20274;-73
2022/04/08 11:33:44;;;;;;;9.55;3.03;;;10.90;49.90;;;;;;4991371;28;20121;-73
2022/04/08 11:36:11;;;;;;;7.40;2.17;;;10.80;49.60;;;;;;5010370;28;20070;-74
2022/04/08 11:38:36;;;;;;;10.35;3.00;;;10.80;50.40;;;;;;5010539;28;20175;-74
2022/04/08 11:41:04;;;;;;;8.70;2.35;;;10.90;51.30;;;;;;5012110;28;20500;-74
2022/04/08 11:43:30;;;;;;;9.48;2.70;;;11.00;51.90;;;;;;5014760;28;20121;-73
2022/04/08 11:45:56;;;;;;;10.77;3.05;;;11.10;51.40;;;;;;5015304;28;20087;-74
2022/04/08 11:48:25;;;;;;;9.32;2.67;;;11.20;51.40;;;;;;5015851;28;20474;-74
2022/04/08 11:50:53;;;;;;;8.32;2.90;;;11.00;50.10;;;;;;5018111;28;20037;-73
2022/04/08 11:53:24;;;;;;;9.25;2.65;;;10.90;50.60;;;;;;4995947;28;20451;-73
2022/04/08 11:55:56;;;;;;;10.63;2.97;;;11.00;51.60;;;;;;5001134;28;20543;-74
2022/04/08 11:58:23;;;;;;;7.90;2.70;;;11.10;50.80;;;;;;4998006;28;20083;-73
2022/04/08 12:00:52;;;;;;;9.15;2.72;;;11.00;50.40;;;;;;5004620;28;20037;-74
2022/04/08 12:03:23;;;;;;;9.00;2.45;;;10.90;50.70;;;;;;5014663;28;20037;-73
2022/04/08 12:05:50;;;;;;;8.35;2.97;;;10.90;51.00;;;;;;5002009;28;20041;-74
2022/04/08 12:08:17;;;;;;;8.73;3.47;;;11.10;51.00;;;;;;5001702;28;20034;-73
2022/04/08 12:10:44;;;;;;;11.43;2.83;;;11.10;49.40;;;;;;5020538;28;20055;-73
2022/04/08 12:13:20;;;;;;;7.40;2.83;;;11.10;50.00;;;;;;5025154;28;20041;-73
2022/04/08 12:15:49;;;;;;;10.40;3.20;;;11.10;48.90;;;;;;5019912;28;20072;-74
2022/04/08 12:18:28;;;;;;;7.65;2.60;;;11.10;48.90;;;;;;5019916;28;20095;-73
2022/04/08 12:20:59;;;;;;;9.68;3.25;;;11.10;50.10;;;;;;4999746;28;20046;-74
2022/04/08 12:23:27;;;;;;;8.63;2.83;;;11.10;49.00;;;;;;5011870;28;20077;-73
2022/04/08 12:25:54;;;;;;;11.68;2.78;;;11.10;49.60;;;;;;5019265;28;20572;-73
2022/04/08 12:28:34;;;;;;;8.55;2.70;;;11.10;48.00;;;;;;5017945;28;20120;-73
2022/04/08 12:31:14;;;;;;;9.40;3.72;;;11.10;49.70;;;;;;5016254;28;20401;-74
2022/04/08 12:33:40;;;;;;;7.47;3.03;;;11.20;51.00;;;;;;5020383;28;20021;-75
2022/04/08 12:36:11;;;;;;;8.98;2.88;;;11.30;50.60;;;;;;5019556;28;20044;-74
2022/04/08 12:38:39;;;;;;;9.38;2.92;;;11.30;49.90;;;;;;5018406;28;20116;-74
2022/04/08 12:41:05;;;;;;;8.38;3.00;;;11.40;50.90;;;;;;5014572;28;20438;-73
2022/04/08 12:43:31;;;;;;;10.57;4.00;;;11.40;49.10;;;;;;4999207;28;20295;-73
2022/04/08 12:45:57;;;;;;;8.35;3.10;;;11.40;49.90;;;;;;5020340;28;20065;-73
2022/04/08 12:48:23;;;;;;;9.85;3.30;;;11.10;49.50;;;;;;5019744;28;20144;-73
2022/04/08 12:50:48;;;;;;;10.02;3.60;;;11.20;50.10;;;;;;5018329;28;20584;-73